createdAt,value
2018-12-13T00:00:49.378Z,101286.16
2018-12-13T00:03:31.635Z,101279.25
2018-12-13T00:06:13.479Z,101277.44
2018-12-13T00:08:56.355Z,101274.48
2018-12-13T00:11:38.751Z,101270.84
2018-12-13T00:14:21.376Z,101266.27
2018-12-13T00:17:03.960Z,101269.38
2018-12-13T00:19:46.611Z,101263.13
2018-12-13T00:22:29.817Z,101270.73
2018-12-13T00:25:12.451Z,101261.38
2018-12-13T00:27:55.247Z,101262.12
2018-12-13T00:30:38.266Z,101263.66
2018-12-13T00:33:20.581Z,101266.36
2018-12-13T00:36:02.988Z,101263.94
2018-12-13T00:38:45.069Z,101269.36
2018-12-13T00:41:27.811Z,101259.30
2018-12-13T00:44:10.691Z,101258.68
2018-12-13T00:46:52.459Z,101262.93
2018-12-13T00:49:34.704Z,101254.72
2018-12-13T00:52:16.843Z,101252.57
2018-12-13T00:54:59.064Z,101250.02
2018-12-13T00:57:41.700Z,101252.17
2018-12-13T01:00:24.019Z,101248.55
2018-12-13T01:03:06.464Z,101249.89
2018-12-13T01:05:50.926Z,101242.04
2018-12-13T01:08:33.666Z,101242.84
2018-12-13T01:11:16.735Z,101247.88
2018-12-13T01:13:58.861Z,101250.50
2018-12-13T01:16:41.573Z,101250.43
2018-12-13T01:19:23.308Z,101257.31
2018-12-13T01:22:05.446Z,101244.27
2018-12-13T01:24:47.573Z,101236.47
2018-12-13T01:27:30.015Z,101236.55
2018-12-13T01:30:12.506Z,101236.87
2018-12-13T01:32:55.612Z,101233.99
2018-12-13T01:35:37.584Z,101244.86
2018-12-13T01:38:20.021Z,101242.88
2018-12-13T01:41:02.446Z,101239.58
2018-12-13T01:43:46.056Z,101246.14
2018-12-13T01:46:28.281Z,101238.97
2018-12-13T01:49:10.344Z,101238.98
2018-12-13T01:51:53.020Z,101243.06
2018-12-13T01:54:35.090Z,101246.48
2018-12-13T01:57:17.678Z,101239.17
2018-12-13T02:00:00.656Z,101236.48
2018-12-13T02:02:42.714Z,101235.33
2018-12-13T02:05:25.213Z,101232.86
2018-12-13T02:08:07.521Z,101234.42
2018-12-13T02:10:50.138Z,101232.53
2018-12-13T02:13:32.549Z,101231.12
2018-12-13T02:16:15.263Z,101230.78
2018-12-13T02:18:57.680Z,101227.91
2018-12-13T02:21:40.894Z,101220.23
2018-12-13T02:24:23.680Z,101221.80
2018-12-13T02:27:06.031Z,101220.45
2018-12-13T02:29:48.007Z,101224.61
2018-12-13T02:32:30.544Z,101226.94
2018-12-13T02:35:13.518Z,101223.33
2018-12-13T02:37:55.951Z,101219.84
2018-12-13T02:40:37.973Z,101219.98
2018-12-13T02:43:20.452Z,101223.33
2018-12-13T02:46:04.066Z,101215.03
2018-12-13T02:48:47.199Z,101215.24
2018-12-13T02:51:30.108Z,101221.45
2018-12-13T02:54:13.649Z,101222.33
2018-12-13T02:56:56.365Z,101218.33
2018-12-13T02:59:38.859Z,101221.88
2018-12-13T03:02:21.682Z,101216.42
2018-12-13T03:05:05.097Z,101215.83
2018-12-13T03:07:48.237Z,101214.95
2018-12-13T03:10:30.925Z,101210.31
2018-12-13T03:13:13.949Z,101207.73
2018-12-13T03:15:56.242Z,101204.17
2018-12-13T03:18:38.973Z,101204.44
2018-12-13T03:21:21.011Z,101200.27
2018-12-13T03:24:03.795Z,101203.50
2018-12-13T03:26:46.327Z,101201.88
2018-12-13T03:29:28.352Z,101201.41
2018-12-13T03:32:10.575Z,101195.59
2018-12-13T03:34:53.196Z,101200.80
2018-12-13T03:37:35.582Z,101195.72
2018-12-13T03:40:18.167Z,101194.70
2018-12-13T03:43:00.885Z,101190.60
2018-12-13T03:45:43.159Z,101185.69
2018-12-13T03:48:26.697Z,101188.38
2018-12-13T03:51:09.351Z,101186.16
2018-12-13T03:53:52.020Z,101184.23
2018-12-13T03:56:34.984Z,101183.62
2018-12-13T03:59:17.760Z,101181.98
2018-12-13T04:02:00.476Z,101176.34
2018-12-13T04:04:42.839Z,101175.87
2018-12-13T04:07:27.842Z,101176.42
2018-12-13T04:10:09.126Z,101177.00
2018-12-13T04:12:51.862Z,101171.33
2018-12-13T04:15:34.861Z,101171.76
2018-12-13T04:18:16.963Z,101165.69
2018-12-13T04:20:59.315Z,101166.16
2018-12-13T04:23:41.799Z,101168.92
2018-12-13T04:26:24.260Z,101163.22
2018-12-13T04:29:06.719Z,101162.27
2018-12-13T04:31:49.403Z,101158.42
2018-12-13T04:34:32.226Z,101163.17
2018-12-13T04:37:14.048Z,101159.54
2018-12-13T04:39:56.680Z,101155.13
2018-12-13T04:42:39.488Z,101150.77
2018-12-13T04:45:21.793Z,101149.77
2018-12-13T04:48:05.282Z,101150.23
2018-12-13T04:50:48.383Z,101153.79
2018-12-13T04:53:30.376Z,101158.83
2018-12-13T04:56:13.324Z,101149.38
2018-12-13T04:58:56.573Z,101153.88
2018-12-13T05:01:39.066Z,101151.58
2018-12-13T05:04:22.292Z,101155.08
2018-12-13T05:07:05.518Z,101145.00
2018-12-13T05:09:47.526Z,101149.77
2018-12-13T05:12:30.231Z,101144.38
2018-12-13T05:15:12.333Z,101145.65
2018-12-13T05:17:54.737Z,101139.69
2018-12-13T05:20:37.555Z,101139.61
2018-12-13T05:23:19.657Z,101137.47
2018-12-13T05:26:02.178Z,101138.41
2018-12-13T05:28:44.483Z,101128.64
2018-12-13T05:31:26.822Z,101122.21
2018-12-13T05:34:09.371Z,101123.23
2018-12-13T05:36:52.258Z,101120.94
2018-12-13T05:39:34.327Z,101116.95
2018-12-13T05:42:16.885Z,101115.70
2018-12-13T05:44:59.354Z,101109.50
2018-12-13T05:47:41.995Z,101109.89
2018-12-13T05:50:24.644Z,101115.59
2018-12-13T05:53:07.564Z,101117.20
2018-12-13T05:55:50.034Z,101113.46
2018-12-13T05:58:32.443Z,101109.50
2018-12-13T06:01:14.268Z,101112.04
2018-12-13T06:03:56.729Z,101102.48
2018-12-13T06:06:39.105Z,101105.81
2018-12-13T06:09:20.916Z,101110.10
2018-12-13T06:12:03.102Z,101120.92
2018-12-13T06:14:44.902Z,101124.09
2018-12-13T06:17:44.070Z,101119.13
2018-12-13T06:21:29.400Z,101128.78
2018-12-13T06:24:15.069Z,101130.77
2018-12-13T06:26:56.618Z,101130.62
2018-12-13T06:29:41.772Z,101131.89
2018-12-13T06:32:23.108Z,101128.63
2018-12-13T06:35:05.973Z,101135.70
2018-12-13T06:37:47.767Z,101136.97
2018-12-13T06:40:29.560Z,101139.67
2018-12-13T06:43:12.935Z,101142.86
2018-12-13T06:45:58.908Z,101142.93
2018-12-13T06:48:41.327Z,101153.03
2018-12-13T06:51:24.126Z,101148.19
2018-12-13T06:54:06.533Z,101149.93
2018-12-13T06:56:48.854Z,101155.17
2018-12-13T06:59:31.604Z,101149.38
2018-12-13T07:02:13.582Z,101146.02
2018-12-13T07:04:59.037Z,101143.88
2018-12-13T07:07:40.941Z,101141.49
2018-12-13T07:10:23.965Z,101149.59
2018-12-13T07:13:06.002Z,101146.98
2018-12-13T07:15:48.689Z,101147.84
2018-12-13T07:18:30.832Z,101153.64
2018-12-13T07:21:12.474Z,101153.09
2018-12-13T07:23:54.253Z,101158.58
2018-12-13T07:26:36.554Z,101161.91
2018-12-13T07:29:18.555Z,101162.55
2018-12-13T07:32:00.757Z,101165.73
2018-12-13T07:34:43.466Z,101162.55
2018-12-13T07:37:25.692Z,101169.13
2018-12-13T07:40:09.197Z,101161.11
2018-12-13T07:42:51.030Z,101166.59
2018-12-13T07:45:33.813Z,101161.27
2018-12-13T07:48:15.954Z,101163.69
2018-12-13T07:50:58.548Z,101160.02
2018-12-13T07:53:41.252Z,101160.50
2018-12-13T07:56:24.088Z,101161.45
2018-12-13T07:59:06.462Z,101162.63
2018-12-13T08:01:48.992Z,101167.03
2018-12-13T08:04:31.852Z,101166.47
2018-12-13T08:07:14.469Z,101174.08
2018-12-13T08:09:56.611Z,101170.68
2018-12-13T08:12:39.622Z,101172.10
2018-12-13T08:15:21.662Z,101167.94
2018-12-13T08:18:03.824Z,101163.66
2018-12-13T08:20:46.090Z,101164.49
2018-12-13T08:23:28.643Z,101154.48
2018-12-13T08:26:10.972Z,101149.47
2018-12-13T08:28:52.650Z,101153.55
2018-12-13T08:31:36.177Z,101151.44
2018-12-13T08:34:19.393Z,101150.23
2018-12-13T08:37:01.726Z,101145.36
2018-12-13T08:39:44.529Z,101143.61
2018-12-13T08:42:26.722Z,101142.81
2018-12-13T08:45:09.078Z,101143.50
2018-12-13T08:47:51.359Z,101137.98
2018-12-13T08:50:34.049Z,101137.59
2018-12-13T08:53:16.092Z,101137.31
2018-12-13T08:55:57.670Z,101140.61
2018-12-13T08:58:39.737Z,101140.54
2018-12-13T09:01:22.162Z,101145.98
2018-12-13T09:04:03.753Z,101144.30
2018-12-13T09:06:45.226Z,101141.02
2018-12-13T09:09:26.936Z,101139.52
2018-12-13T09:12:09.811Z,101143.81
2018-12-13T09:14:52.059Z,101153.54
2018-12-13T09:17:34.241Z,101152.87
2018-12-13T09:20:15.871Z,101149.52
2018-12-13T09:22:58.038Z,101147.41
2018-12-13T09:25:39.639Z,101147.44
2018-12-13T09:28:21.307Z,101148.50
2018-12-13T09:31:03.910Z,101149.90
2018-12-13T09:33:46.821Z,101149.09
2018-12-13T09:36:28.518Z,101154.95
2018-12-13T09:39:10.125Z,101152.27
2018-12-13T09:41:52.467Z,101151.11
2018-12-13T09:44:35.447Z,101143.31
2018-12-13T09:47:17.972Z,101146.02
2018-12-13T09:50:00.362Z,101155.78
2018-12-13T09:52:43.464Z,101152.92
2018-12-13T09:55:25.773Z,101148.03
2018-12-13T09:58:08.181Z,101147.29
2018-12-13T10:00:50.996Z,101148.59
2018-12-13T10:03:32.794Z,101138.04
2018-12-13T10:06:15.108Z,101144.94
2018-12-13T10:08:56.780Z,101142.17
2018-12-13T10:11:38.033Z,101139.85
2018-12-13T10:14:20.214Z,101140.72
2018-12-13T10:17:02.394Z,101137.45
2018-12-13T10:19:43.986Z,101134.31
2018-12-13T10:22:25.387Z,101133.94
2018-12-13T10:25:06.825Z,101142.66
2018-12-13T10:27:48.417Z,101143.45
2018-12-13T10:30:30.223Z,101137.30
2018-12-13T10:33:11.725Z,101138.11
2018-12-13T10:35:54.609Z,101136.62
2018-12-13T10:38:36.450Z,101128.12
2018-12-13T10:41:18.335Z,101129.33
2018-12-13T10:44:00.226Z,101125.41
2018-12-13T10:46:42.517Z,101130.73
2018-12-13T10:49:23.994Z,101127.54
2018-12-13T10:52:05.697Z,101122.04
2018-12-13T10:54:47.708Z,101113.51
2018-12-13T10:57:30.021Z,101122.19
2018-12-13T11:00:19.455Z,101111.28
2018-12-13T11:03:21.043Z,101121.27
2018-12-13T11:06:05.680Z,101115.86
2018-12-13T11:08:50.293Z,101115.36
2018-12-13T11:11:43.230Z,101120.01
2018-12-13T11:14:33.534Z,101115.43
2018-12-13T11:17:19.812Z,101099.34
2018-12-13T11:20:03.862Z,101088.45
2018-12-13T11:22:47.360Z,101088.41
2018-12-13T11:25:31.827Z,101073.52
2018-12-13T11:28:26.155Z,101081.91
2018-12-13T11:31:10.316Z,101080.33
2018-12-13T11:33:52.061Z,101078.73
2018-12-13T11:36:34.173Z,101074.99
2018-12-13T11:39:16.678Z,101066.31
2018-12-13T11:41:57.939Z,101073.50
2018-12-13T11:44:39.830Z,101069.93
2018-12-13T11:47:25.681Z,101064.27
2018-12-13T11:50:08.516Z,101056.05
2018-12-13T11:52:50.397Z,101054.39
2018-12-13T11:55:34.517Z,101055.34
2018-12-13T11:58:16.906Z,101058.45
2018-12-13T12:00:58.677Z,101063.73
2018-12-13T12:03:40.694Z,101050.34
2018-12-13T12:06:23.111Z,101041.08
2018-12-13T12:09:12.011Z,101042.19
2018-12-13T12:11:51.165Z,101038.75
2018-12-13T12:14:34.557Z,101029.33
2018-12-13T12:17:17.303Z,101037.25
2018-12-13T12:20:03.662Z,101029.03
2018-12-13T12:22:46.779Z,101024.79
2018-12-13T12:25:30.064Z,101025.20
2018-12-13T12:28:12.511Z,101023.98
2018-12-13T12:30:55.175Z,101019.16
2018-12-13T12:33:37.391Z,101012.00
2018-12-13T12:36:19.954Z,101012.65
2018-12-13T12:39:04.466Z,101011.80
2018-12-13T12:41:57.283Z,101006.84
2018-12-13T12:44:49.329Z,101004.23
2018-12-13T12:47:32.557Z,101001.39
2018-12-13T12:50:17.585Z,101002.48
2018-12-13T12:52:59.291Z,101001.23
2018-12-13T12:55:40.968Z,101000.40
2018-12-13T12:58:23.691Z,101012.89
2018-12-13T13:01:06.261Z,101006.53
2018-12-13T13:03:48.366Z,101007.67
2018-12-13T13:06:35.361Z,101007.53
2018-12-13T13:09:25.057Z,100998.53
2018-12-13T13:12:05.635Z,100991.91
2018-12-13T13:14:48.345Z,100988.94
2018-12-13T13:17:30.133Z,100983.09
2018-12-13T13:20:12.128Z,100985.75
2018-12-13T13:22:54.306Z,100989.48
2018-12-13T13:25:35.858Z,100994.38
2018-12-13T13:28:17.297Z,100991.75
2018-12-13T13:30:59.432Z,100996.80
2018-12-13T13:33:41.599Z,100987.53
2018-12-13T13:36:23.182Z,100987.13
2018-12-13T13:39:07.170Z,100988.36
2018-12-13T13:41:49.322Z,100986.73
2018-12-13T13:44:37.980Z,100991.67
2018-12-13T13:47:20.729Z,100986.10
2018-12-13T13:50:03.092Z,100986.62
2018-12-13T13:52:45.239Z,100987.95
2018-12-13T13:55:27.189Z,100980.33
2018-12-13T13:58:10.087Z,100989.58
2018-12-13T14:00:52.295Z,100982.61
2018-12-13T14:03:34.576Z,100987.33
2018-12-13T14:06:16.615Z,100981.05
2018-12-13T14:09:04.188Z,100979.83
2018-12-13T14:11:46.240Z,100980.98
2018-12-13T14:14:28.433Z,100972.03
2018-12-13T14:17:10.950Z,100987.33
2018-12-13T14:19:53.384Z,100989.36
2018-12-13T14:22:35.816Z,100992.25
2018-12-13T14:25:18.174Z,100989.53
2018-12-13T14:28:00.389Z,100980.17
2018-12-13T14:30:43.533Z,100989.74
2018-12-13T14:33:25.901Z,100981.54
2018-12-13T14:36:08.747Z,100986.30
2018-12-13T14:38:51.030Z,100979.39
2018-12-13T14:41:35.073Z,100983.33
2018-12-13T14:44:22.645Z,100987.41
2018-12-13T14:47:04.030Z,100978.74
2018-12-13T14:49:45.577Z,100981.59
2018-12-13T14:52:27.253Z,100980.67
2018-12-13T14:55:09.718Z,100983.73
2018-12-13T14:57:52.293Z,100980.97
2018-12-13T15:00:34.493Z,100978.98
2018-12-13T15:03:16.781Z,100979.04
2018-12-13T15:05:58.506Z,100972.32
2018-12-13T15:08:41.113Z,100978.24
2018-12-13T15:11:23.910Z,100981.72
2018-12-13T15:14:06.226Z,100983.81
2018-12-13T15:16:48.550Z,100991.88
2018-12-13T15:19:29.836Z,100993.33
2018-12-13T15:22:12.840Z,100986.13
2018-12-13T15:24:55.258Z,100991.59
2018-12-13T15:27:37.129Z,100991.64
2018-12-13T15:30:20.708Z,100988.05
2018-12-13T15:33:02.782Z,100991.88
2018-12-13T15:35:44.270Z,100990.59
2018-12-13T15:38:26.549Z,100991.64
2018-12-13T15:41:08.717Z,100993.27
2018-12-13T15:43:51.353Z,100996.80
2018-12-13T15:46:33.515Z,100992.50
2018-12-13T15:49:15.784Z,100982.99
2018-12-13T15:51:57.682Z,100991.35
2018-12-13T15:54:40.208Z,100994.08
2018-12-13T15:57:22.470Z,100990.37
2018-12-13T16:00:04.562Z,100994.77
2018-12-13T16:02:46.617Z,100996.63
2018-12-13T16:05:28.082Z,101001.80
2018-12-13T16:08:10.479Z,101001.80
2018-12-13T16:10:53.791Z,101003.30
2018-12-13T16:13:35.657Z,100993.67
2018-12-13T16:16:17.397Z,100993.13
2018-12-13T16:18:59.586Z,100984.08
2018-12-13T16:21:41.746Z,100996.50
2018-12-13T16:24:24.024Z,100988.84
2018-12-13T16:27:05.746Z,100992.14
2018-12-13T16:29:47.390Z,100990.98
2018-12-13T16:32:31.950Z,100987.39
2018-12-13T16:35:18.935Z,100985.19
2018-12-13T16:38:00.783Z,100987.80
2018-12-13T16:40:43.546Z,100986.87
2018-12-13T16:43:26.473Z,100982.11
2018-12-13T16:46:08.002Z,100986.23
2018-12-13T16:48:49.271Z,100984.95
2018-12-13T16:51:31.119Z,100978.51
2018-12-13T16:54:13.366Z,100980.48
2018-12-13T16:56:55.224Z,100975.03
2018-12-13T16:59:37.685Z,100980.86
2018-12-13T17:02:20.537Z,100987.56
2018-12-13T17:05:03.902Z,100979.47
2018-12-13T17:07:47.335Z,100980.52
2018-12-13T17:10:30.110Z,100986.17
2018-12-13T17:13:12.649Z,100986.37
2018-12-13T17:15:56.485Z,100984.11
2018-12-13T17:18:45.972Z,100977.84
2018-12-13T17:21:29.232Z,100979.00
2018-12-13T17:24:12.554Z,100984.86
2018-12-13T17:26:55.030Z,100980.28
2018-12-13T17:29:37.526Z,100976.69
2018-12-13T17:32:20.616Z,100979.00
2018-12-13T17:35:02.522Z,100979.53
2018-12-13T17:37:44.696Z,100976.40
2018-12-13T17:40:27.878Z,100984.23
2018-12-13T17:43:09.452Z,100977.67
2018-12-13T17:45:50.782Z,100983.47
2018-12-13T17:48:33.000Z,100981.88
2018-12-13T17:51:17.642Z,100985.47
2018-12-13T17:54:01.057Z,100986.03
2018-12-13T17:56:49.434Z,101000.22
2018-12-13T17:59:40.760Z,100987.17
2018-12-13T18:02:23.409Z,100995.12
2018-12-13T18:05:06.434Z,100993.03
2018-12-13T18:07:48.297Z,100993.63
2018-12-13T18:10:31.185Z,101001.47
2018-12-13T18:13:13.604Z,100998.59
2018-12-13T18:15:55.617Z,100999.87
2018-12-13T18:18:37.507Z,101002.77
2018-12-13T18:21:19.801Z,100999.08
2018-12-13T18:24:02.094Z,100992.17
2018-12-13T18:26:43.758Z,100988.88
2018-12-13T18:29:27.229Z,100992.70
2018-12-13T18:32:08.711Z,100987.48
2018-12-13T18:34:50.402Z,100995.25
2018-12-13T18:37:32.718Z,100996.47
2018-12-13T18:40:14.397Z,100993.92
2018-12-13T18:43:09.384Z,100997.50
2018-12-13T18:46:25.272Z,100992.80
2018-12-13T18:49:07.719Z,101001.67
2018-12-13T18:51:51.102Z,100996.59
2018-12-13T18:54:33.561Z,100996.87
2018-12-13T18:57:15.773Z,100997.11
2018-12-13T18:59:57.403Z,101006.16
2018-12-13T19:02:38.818Z,101005.58
2018-12-13T19:05:20.596Z,100998.52
2018-12-13T19:08:03.006Z,100995.55
2018-12-13T19:10:44.461Z,100995.66
2018-12-13T19:13:26.828Z,100999.65
2018-12-13T19:16:08.574Z,101003.00
2018-12-13T19:18:51.702Z,101006.96
2018-12-13T19:21:42.591Z,101005.72
2018-12-13T19:24:24.529Z,100998.41
2018-12-13T19:27:06.589Z,101000.44
2018-12-13T19:29:48.517Z,101000.69
2018-12-13T19:32:31.182Z,101001.95
2018-12-13T19:35:19.260Z,101005.38
2018-12-13T19:37:58.054Z,101003.70
2018-12-13T19:40:40.342Z,100999.53
2018-12-13T19:43:24.045Z,101006.00
2018-12-13T19:46:06.557Z,101003.42
2018-12-13T19:48:48.722Z,100999.75
2018-12-13T19:51:31.273Z,101006.25
2018-12-13T19:54:13.608Z,101004.38
2018-12-13T19:56:55.329Z,101011.28
2018-12-13T19:59:37.832Z,101005.44
2018-12-13T20:02:20.236Z,101009.36
2018-12-13T20:05:03.159Z,101012.44
2018-12-13T20:07:46.550Z,101009.95
2018-12-13T20:10:29.107Z,101006.37
2018-12-13T20:13:11.700Z,101010.38
2018-12-13T20:15:54.415Z,101011.47
2018-12-13T20:18:36.737Z,101006.66
2018-12-13T20:21:19.434Z,101021.52
2018-12-13T20:24:01.458Z,101015.48
2018-12-13T20:26:43.941Z,101023.25
2018-12-13T20:29:26.656Z,101023.53
2018-12-13T20:32:09.049Z,101027.30
2018-12-13T20:34:51.368Z,101019.77
2018-12-13T20:37:33.672Z,101016.45
2018-12-13T20:40:15.979Z,101016.84
2018-12-13T20:42:59.203Z,101019.00
2018-12-13T20:45:41.510Z,101019.68
2018-12-13T20:48:23.523Z,101022.88
2018-12-13T20:51:06.134Z,101023.69
2018-12-13T20:53:48.853Z,101023.56
2018-12-13T20:56:31.170Z,101019.08
2018-12-13T20:59:13.245Z,101016.38
2018-12-13T21:01:56.158Z,101019.55
2018-12-13T21:04:38.266Z,101020.09
2018-12-13T21:07:26.281Z,101025.84
2018-12-13T21:10:10.709Z,101023.63
2018-12-13T21:12:53.468Z,101018.01
2018-12-13T21:15:36.391Z,101024.80
2018-12-13T21:18:18.718Z,101027.13
2018-12-13T21:21:01.295Z,101033.61
2018-12-13T21:27:30.874Z,101036.84
2018-12-13T21:30:14.214Z,101034.09
2018-12-13T21:32:57.313Z,101032.88
2018-12-13T21:35:41.010Z,101032.58
2018-12-13T21:38:23.710Z,101034.33
2018-12-13T21:41:06.679Z,101036.80
2018-12-13T21:43:51.272Z,101034.63
2018-12-13T21:46:36.431Z,101042.36
2018-12-13T21:49:21.408Z,101041.05
2018-12-13T21:52:04.113Z,101036.83
2018-12-13T21:54:46.928Z,101045.33
2018-12-13T21:57:30.616Z,101040.89
2018-12-13T22:00:15.913Z,101041.78
2018-12-13T22:03:00.221Z,101031.27
2018-12-13T22:05:42.901Z,101036.20
2018-12-13T22:08:25.679Z,101040.72
2018-12-13T22:11:10.562Z,101043.39
2018-12-13T22:13:57.140Z,101033.94
2018-12-13T22:16:40.187Z,101045.25
2018-12-13T22:19:24.389Z,101035.94
2018-12-13T22:22:08.163Z,101032.79
2018-12-13T22:24:51.716Z,101035.73
2018-12-13T22:27:36.042Z,101036.83
2018-12-13T22:30:18.915Z,101039.70
2018-12-13T22:33:04.269Z,101034.60
2018-12-13T22:35:47.870Z,101036.16
2018-12-13T22:38:30.960Z,101037.22
2018-12-13T22:41:14.746Z,101039.95
2018-12-13T22:43:58.288Z,101037.14
2018-12-13T22:46:41.229Z,101039.63
2018-12-13T22:49:23.843Z,101043.39
2018-12-13T22:52:06.997Z,101044.53
2018-12-13T22:54:51.741Z,101046.31
2018-12-13T22:57:34.259Z,101042.36
2018-12-13T23:00:18.585Z,101038.94
2018-12-13T23:03:03.110Z,101037.27
2018-12-13T23:05:46.124Z,101033.31
2018-12-13T23:08:29.114Z,101041.56
2018-12-13T23:11:14.436Z,101023.68
2018-12-13T23:13:57.912Z,101033.05
2018-12-13T23:16:40.645Z,101039.12
2018-12-13T23:19:25.103Z,101040.07
2018-12-13T23:22:08.142Z,101043.48
2018-12-13T23:24:52.295Z,101039.20
2018-12-13T23:27:36.931Z,101038.19
2018-12-13T23:30:20.990Z,101043.23
2018-12-13T23:33:03.768Z,101050.32
2018-12-13T23:35:46.148Z,101045.89
2018-12-13T23:38:31.049Z,101051.98
2018-12-13T23:41:14.697Z,101048.43
2018-12-13T23:43:57.693Z,101057.66
2018-12-13T23:46:40.532Z,101043.34
2018-12-13T23:49:23.932Z,101051.12
2018-12-13T23:52:07.117Z,101052.64
2018-12-13T23:54:50.137Z,101059.30
2018-12-13T23:57:35.288Z,101058.85
